Time;durP1;ratioP1;P1;durP2;ratioP2;P2;SDS_P1;SDS_P2;PMS_P1;PMS_P2;Temp;Humidity;BMP_temperature;BMP_pressure;BME280_temperature;BME280_humidity;BME280_pressure;Samples;Min_cycle;Max_cycle;Signal;HPM_P1;HPM_P2
2023/03/14 00:01:27;;;;;;;4.55;4.35;;;;;;;8.44;100.00;98541.44;6082988;23;20399;-83
2023/03/14 00:03:55;;;;;;;4.10;3.90;;;;;;;7.67;100.00;98374.97;6053709;23;20033;-80
2023/03/14 00:06:33;;;;;;;4.90;4.50;;;;;;;5.78;100.00;98057.34;6082561;23;20024;-81
2023/03/14 00:09:29;;;;;;;4.30;4.10;;;;;;;5.48;100.00;98003.22;6059331;23;20057;-81
2023/03/14 00:12:07;;;;;;;6.72;4.65;;;;;;;3.81;100.00;97746.16;6070415;23;20026;-82
2023/03/14 00:14:42;;;;;;;4.65;4.40;;;;;;;5.70;100.00;98113.50;6064055;23;20030;-81
2023/03/14 00:17:25;;;;;;;;;;;;;;;;;;;;;
2023/03/14 00:20:08;;;;;;;4.90;4.70;;;;;;;8.40;100.00;98582.66;6060750;23;20036;-82
2023/03/14 00:22:41;;;;;;;4.57;4.32;;;;;;;7.88;100.00;98445.59;6059779;23;20010;-81
2023/03/14 00:25:09;;;;;;;4.53;4.32;;;;;;;8.50;100.00;98507.81;6056309;23;20029;-82
2023/03/14 00:27:36;;;;;;;4.88;4.60;;;;;;;6.92;100.00;98236.31;6061474;23;20079;-81
2023/03/14 00:30:04;;;;;;;4.13;3.92;;;;;;;8.67;100.00;98454.19;6064925;23;20121;-80
2023/03/14 00:32:31;;;;;;;7.80;4.05;;;;;;;9.46;100.00;98594.38;6042699;23;20797;-82
2023/03/14 00:35:00;;;;;;;4.57;4.20;;;;;;;5.87;100.00;97962.09;6058626;23;20032;-81
2023/03/14 00:37:27;;;;;;;5.18;4.88;;;;;;;6.93;100.00;98136.28;6081803;23;20028;-81
2023/03/14 00:39:54;;;;;;;4.28;4.07;;;;;;;7.83;100.00;98252.69;6058666;23;20021;-80
2023/03/14 00:42:21;;;;;;;5.53;4.90;;;;;;;7.71;100.00;98233.63;6053261;23;20034;-82
2023/03/14 00:44:51;;;;;;;4.43;4.22;;;;;;;9.73;100.00;98562.47;6054266;23;20170;-80
2023/03/14 00:47:17;;;;;;;4.43;4.10;;;;;;;9.10;100.00;98531.81;6034006;23;20018;-81
2023/03/14 00:49:46;;;;;;;4.43;4.07;;;;;;;6.51;100.00;98227.25;6050287;23;20113;-81
2023/03/14 00:52:18;;;;;;;4.00;3.80;;;;;;;5.42;100.00;98148.50;6064042;23;20366;-81
2023/03/14 00:54:48;;;;;;;4.40;4.20;;;;;;;9.19;100.00;98773.63;6054385;23;20012;-81
2023/03/14 00:57:15;;;;;;;7.68;3.90;;;;;;;6.67;100.00;98398.94;6086148;23;20056;-80
2023/03/14 00:59:42;;;;;;;3.78;3.67;;;;;;;6.32;100.00;98350.22;6058084;23;20102;-80
2023/03/14 01:02:08;;;;;;;3.80;3.70;;;;;;;7.83;100.00;98571.28;6086872;23;20644;-82
2023/03/14 01:04:37;;;;;;;4.32;4.13;;;;;;;8.56;100.00;98686.91;6061570;23;20053;-80
2023/03/14 01:07:04;;;;;;;4.10;3.90;;;;;;;6.57;100.00;98390.13;6085679;23;20100;-79
2023/03/14 01:09:42;;;;;;;4.47;4.28;;;;;;;5.94;100.00;98312.13;6054508;23;20014;-82
2023/03/14 01:12:17;;;;;;;5.20;4.90;;;;;;;7.91;100.00;98636.81;6039129;23;20028;-81
2023/03/14 01:14:47;;;;;;;4.13;3.92;;;;;;;5.91;100.00;98296.75;6027090;23;20022;-81
2023/03/14 01:17:17;;;;;;;8.60;4.10;;;;;;;5.04;100.00;98191.88;6058200;23;20018;-81
2023/03/14 01:19:43;;;;;;;4.95;4.55;;;;;;;5.33;100.00;98249.66;6061384;23;20579;-81
2023/03/14 01:22:10;;;;;;;5.72;5.25;;;;;;;5.60;100.00;98249.47;6048548;23;20079;-81
2023/03/14 01:24:37;;;;;;;4.43;4.22;;;;;;;3.48;100.00;97902.34;6027925;23;20033;-81
2023/03/14 01:27:08;;;;;;;3.85;3.70;;;;;;;6.46;100.00;98382.28;6047907;23;20178;-82
2023/03/14 01:29:35;;;;;;;4.22;4.03;;;;;;;7.20;100.00;98479.41;6029531;23;20021;-83
2023/03/14 01:32:02;;;;;;;4.03;3.80;;;;;;;4.74;100.00;98142.88;6049044;23;20146;-83
2023/03/14 01:34:29;;;;;;;4.60;4.30;;;;;;;5.26;100.00;98218.97;6062832;23;20030;-84
2023/03/14 01:36:58;;;;;;;4.50;4.30;;;;;;;8.62;100.00;98736.13;6025197;23;20495;-82
2023/03/14 01:39:45;;;;;;;5.17;4.87;;;;;;;5.09;100.00;98179.41;6061060;23;20042;-83
2023/03/14 01:42:15;;;;;;;4.63;4.43;;;;;;;3.90;100.00;97985.94;6066188;23;20302;-82
2023/03/14 01:44:56;;;;;;;4.15;3.95;;;;;;;8.59;100.00;98728.47;6060394;23;20567;-80
2023/03/14 01:47:26;;;;;;;4.45;4.25;;;;;;;7.81;100.00;98569.72;6041513;23;20674;-81
2023/03/14 01:50:01;;;;;;;4.20;4.00;;;;;;;6.43;100.00;98387.69;6036664;23;20101;-80
2023/03/14 01:52:35;;;;;;;5.40;4.95;;;;;;;8.65;100.00;98742.88;6068766;23;20395;-80
2023/03/14 01:55:17;;;;;;;9.52;4.57;;;;;;;8.65;100.00;98748.94;6056692;23;20034;-80
2023/03/14 01:57:48;;;;;;;5.10;4.80;;;;;;;6.14;100.00;98296.88;6062355;23;20018;-81
2023/03/14 02:00:20;;;;;;;4.00;3.80;;;;;;;6.27;100.00;98361.91;6054674;23;20394;-82
2023/03/14 02:03:02;;;;;;;;;;;;;;;8.51;100.00;98689.03;6064414;23;20505;-81
2023/03/14 02:05:32;;;;;;;4.55;4.35;;;;;;;6.96;100.00;98477.63;6036852;23;19910;-80
2023/03/14 02:08:00;;;;;;;3.83;3.63;;;;;;;7.49;100.00;98554.69;6075715;23;20034;-80
2023/03/14 02:10:30;;;;;;;7.38;4.25;;;;;;;5.13;100.00;98180.00;6075457;23;20026;-81
2023/03/14 02:13:00;;;;;;;4.28;4.07;;;;;;;4.93;100.00;98129.41;6096726;23;20034;-80
2023/03/14 02:17:58;;;;;;;4.70;4.38;;;;;;;8.66;100.00;98661.72;6061653;23;20469;-69
2023/03/14 02:20:25;;;;;;;4.43;3.95;;;;;;;8.79;100.00;98678.09;6055807;23;20018;-68
2023/03/14 02:22:52;;;;;;;4.72;4.53;;;;;;;8.58;100.00;98653.63;6066924;23;20026;-68
2023/03/14 02:25:28;;;;;;;4.07;3.88;;;;;;;8.61;100.00;98679.53;6036512;23;20092;-69
2023/03/14 02:27:55;;;;;;;4.75;4.47;;;;;;;8.22;100.00;98611.03;6044124;23;20101;-68
2023/03/14 02:30:25;;;;;;;4.32;4.13;;;;;;;8.82;100.00;98691.91;6061485;23;20076;-67
2023/03/14 02:32:57;;;;;;;5.35;4.15;;;;;;;8.67;100.00;98657.31;6061839;23;20442;-69
2023/03/14 02:35:29;;;;;;;4.63;4.32;;;;;;;8.01;100.00;98529.06;6062646;23;20030;-70
2023/03/14 02:38:24;;;;;;;6.72;6.30;;;;;;;8.96;100.00;98673.34;6040944;23;20025;-69
2023/03/14 02:40:51;;;;;;;4.85;4.50;;;;;;;8.81;100.00;98643.16;6060483;23;20041;-68
2023/03/14 02:43:17;;;;;;;5.30;4.45;;;;;;;8.47;100.00;98585.63;6061692;23;20026;-68
2023/03/14 02:45:46;;;;;;;4.20;4.00;;;;;;;8.99;100.00;98670.50;6033907;23;20705;-69
2023/03/14 02:48:20;;;;;;;4.97;4.70;;;;;;;9.02;100.00;98664.19;6056564;23;20022;-69
2023/03/14 02:50:50;;;;;;;7.07;4.40;;;;;;;9.04;100.00;98675.38;6051154;23;20580;-69
2023/03/14 02:53:21;;;;;;;4.20;3.95;;;;;;;8.31;100.00;98558.03;6055428;23;20092;-69
2023/03/14 02:55:48;;;;;;;4.93;4.55;;;;;;;9.04;100.00;98675.38;6029293;23;20098;-69
2023/03/14 02:58:15;;;;;;;4.10;3.90;;;;;;;8.73;100.00;98625.44;6028353;23;20038;-69
2023/03/14 03:00:41;;;;;;;4.15;3.95;;;;;;;9.05;100.00;98651.69;6029375;23;20042;-68
2023/03/14 03:03:08;;;;;;;3.97;3.83;;;;;;;8.61;100.00;98585.41;6053743;23;20034;-68
2023/03/14 03:05:35;;;;;;;4.10;3.90;;;;;;;8.61;100.00;98587.19;6029746;23;20038;-68
2023/03/14 03:08:02;;;;;;;4.50;4.10;;;;;;;8.95;100.00;98656.00;6047977;23;20097;-68
2023/03/14 03:10:28;;;;;;;4.07;3.88;;;;;;;8.78;100.00;98624.16;6037136;23;20057;-68
2023/03/14 03:12:54;;;;;;;4.40;4.20;;;;;;;8.61;100.00;98606.31;6054139;23;20032;-68
2023/03/14 03:15:21;;;;;;;4.15;3.95;;;;;;;8.58;100.00;98604.78;6057366;23;20111;-68
2023/03/14 03:17:48;;;;;;;4.85;4.55;;;;;;;8.90;100.00;98634.59;6029610;23;20419;-69
2023/03/14 03:20:14;;;;;;;4.50;4.10;;;;;;;9.07;100.00;98659.44;6060240;23;20238;-69
2023/03/14 03:22:41;;;;;;;4.18;3.97;;;;;;;9.06;100.00;98650.75;6030599;23;20029;-67
2023/03/14 03:25:08;;;;;;;3.97;3.78;;;;;;;9.02;100.00;98645.88;6054519;23;20783;-68
2023/03/14 03:27:36;;;;;;;4.20;4.00;;;;;;;8.50;100.00;98561.88;6054231;23;20086;-68
2023/03/14 03:30:06;;;;;;;4.20;4.00;;;;;;;8.77;100.00;98625.09;6034089;23;20027;-71
2023/03/14 03:32:32;;;;;;;4.35;4.15;;;;;;;8.44;100.00;98601.56;6049037;23;20097;-67
2023/03/14 03:34:59;;;;;;;4.07;3.88;;;;;;;8.89;100.00;98678.22;6032902;23;20041;-67
2023/03/14 03:37:25;;;;;;;4.00;3.80;;;;;;;8.81;100.00;98669.31;6024187;23;20007;-70
2023/03/14 03:39:52;;;;;;;4.75;4.45;;;;;;;8.75;100.00;98660.16;6057995;23;20094;-67
2023/03/14 03:42:18;;;;;;;9.50;3.92;;;;;;;8.50;100.00;98629.81;6024941;23;20046;-67
2023/03/14 03:44:45;;;;;;;4.30;4.10;;;;;;;8.68;100.00;98658.97;6059883;23;20058;-68
2023/03/14 03:47:11;;;;;;;4.78;4.50;;;;;;;8.68;100.00;98645.88;6026313;23;20030;-69
2023/03/14 03:49:40;;;;;;;4.13;3.92;;;;;;;7.70;100.00;98492.22;6055777;23;20402;-69
2023/03/14 03:52:07;;;;;;;4.20;4.00;;;;;;;8.51;100.00;98621.88;6005956;23;20106;-68
2023/03/14 03:54:33;;;;;;;4.53;4.15;;;;;;;8.62;100.00;98643.75;6026342;23;20089;-69
2023/03/14 03:57:00;;;;;;;4.30;4.10;;;;;;;8.59;100.00;98623.91;6058544;23;20828;-69
2023/03/14 03:59:26;;;;;;;4.45;3.97;;;;;;;8.18;100.00;98566.00;6039901;23;20034;-68
2023/03/14 04:01:53;;;;;;;4.70;4.40;;;;;;;8.56;100.00;98629.38;6057373;23;20022;-69
2023/03/14 04:04:20;;;;;;;4.03;3.83;;;;;;;8.56;100.00;98618.94;6052050;23;20034;-69
2023/03/14 04:06:46;;;;;;;3.80;3.70;;;;;;;8.55;100.00;98615.47;6027026;23;20093;-68
2023/03/14 04:09:13;;;;;;;4.80;4.50;;;;;;;8.22;100.00;98577.06;6059635;23;20042;-69
2023/03/14 04:11:41;;;;;;;4.40;4.10;;;;;;;8.05;100.00;98530.47;6025294;23;20430;-69
2023/03/14 04:14:07;;;;;;;4.38;4.18;;;;;;;8.56;100.00;98613.69;6058144;23;20033;-69
2023/03/14 04:16:34;;;;;;;5.88;4.40;;;;;;;8.57;100.00;98615.34;6031136;23;20032;-69
2023/03/14 04:19:02;;;;;;;4.80;4.50;;;;;;;8.27;100.00;98564.44;6053582;23;20035;-68
2023/03/14 04:21:28;;;;;;;5.68;5.25;;;;;;;8.36;100.00;98570.78;6025245;23;20026;-69
2023/03/14 04:23:55;;;;;;;4.25;4.05;;;;;;;8.50;100.00;98588.00;6056680;23;20027;-69
2023/03/14 04:26:21;;;;;;;4.30;4.10;;;;;;;8.64;100.00;98613.09;6032532;23;20042;-68
2023/03/14 04:28:48;;;;;;;4.38;4.10;;;;;;;8.63;100.00;98587.91;6004355;23;20031;-68
2023/03/14 04:31:18;;;;;;;4.20;3.95;;;;;;;8.64;100.00;98587.78;6029961;23;20027;-69
2023/03/14 04:33:45;;;;;;;4.70;4.30;;;;;;;8.56;100.00;98572.69;6030505;23;20038;-69
2023/03/14 04:36:11;;;;;;;4.53;4.25;;;;;;;8.73;100.00;98583.59;6031196;23;20018;-67
2023/03/14 04:38:38;;;;;;;4.10;3.90;;;;;;;8.31;100.00;98521.44;6054730;23;20034;-69
2023/03/14 04:41:04;;;;;;;6.68;4.85;;;;;;;8.45;100.00;98536.09;6030093;23;20031;-68
2023/03/14 04:43:31;;;;;;;5.20;3.95;;;;;;;8.79;100.00;98568.25;6050006;23;20733;-68
2023/03/14 04:45:58;;;;;;;4.68;4.38;;;;;;;8.53;100.00;98520.63;6054759;23;20093;-69
2023/03/14 04:48:26;;;;;;;4.03;3.83;;;;;;;8.81;100.00;98557.69;5997064;23;20038;-69
2023/03/14 04:50:52;;;;;;;4.20;3.90;;;;;;;8.81;100.00;98554.25;6028825;23;20046;-68
2023/03/14 04:53:21;;;;;;;4.15;3.95;;;;;;;8.67;100.00;98531.78;6029343;23;20033;-68
2023/03/14 04:55:55;;;;;;;4.35;4.13;;;;;;;8.32;100.00;98480.50;6025146;23;20294;-69
2023/03/14 04:58:23;;;;;;;4.20;3.90;;;;;;;8.87;100.00;98556.38;6050728;23;20720;-69
2023/03/14 05:00:50;;;;;;;4.25;3.90;;;;;;;8.84;100.00;98548.75;6029881;23;20623;-69
2023/03/14 05:03:18;;;;;;;4.50;4.30;;;;;;;8.71;100.00;98530.59;6053869;23;20030;-69
2023/03/14 05:05:45;;;;;;;4.03;3.83;;;;;;;8.82;100.00;98535.81;6022452;23;20046;-68
2023/03/14 05:08:11;;;;;;;4.30;4.00;;;;;;;8.82;100.00;98546.28;6053102;23;20037;-68
2023/03/14 05:10:38;;;;;;;4.05;3.85;;;;;;;8.65;100.00;98534.53;6023043;23;20090;-68
2023/03/14 05:13:04;;;;;;;4.10;3.90;;;;;;;8.81;100.00;98538.56;6055504;23;20053;-68
2023/03/14 05:15:31;;;;;;;4.03;3.83;;;;;;;8.81;100.00;98538.56;6052939;23;20053;-68
2023/03/14 05:17:57;;;;;;;4.07;3.88;;;;;;;8.53;100.00;98501.50;6053137;23;20029;-68
2023/03/14 05:20:24;;;;;;;4.30;4.00;;;;;;;8.34;100.00;98460.28;6005723;23;20035;-68
2023/03/14 05:22:50;;;;;;;4.25;4.05;;;;;;;8.32;100.00;98464.81;6056708;23;20022;-68
2023/03/14 05:25:17;;;;;;;4.15;3.95;;;;;;;8.81;100.00;98539.38;6055170;23;20030;-68
2023/03/14 05:27:43;;;;;;;4.00;3.80;;;;;;;8.27;100.00;98449.47;6041111;23;20021;-69
2023/03/14 05:30:10;;;;;;;4.20;4.00;;;;;;;8.85;100.00;98537.34;6055044;23;20018;-69
2023/03/14 05:32:36;;;;;;;4.00;3.80;;;;;;;8.83;100.00;98534.03;6055828;23;20078;-68
2023/03/14 05:35:03;;;;;;;4.25;4.00;;;;;;;8.41;100.00;98458.03;6029142;23;20022;-68
2023/03/14 05:37:30;;;;;;;4.03;3.83;;;;;;;8.57;100.00;98480.22;6056043;23;20030;-69
2023/03/14 05:39:56;;;;;;;3.72;3.63;;;;;;;8.86;100.00;98523.31;6061175;23;20032;-68
2023/03/14 05:42:22;;;;;;;4.97;4.57;;;;;;;8.64;100.00;98493.66;6030899;23;20092;-67
2023/03/14 05:44:49;;;;;;;3.95;3.80;;;;;;;7.85;100.00;98373.53;6048740;23;20031;-68
2023/03/14 05:47:15;;;;;;;4.10;3.90;;;;;;;8.86;100.00;98528.53;6038812;23;20042;-68
2023/03/14 05:49:42;;;;;;;4.03;3.83;;;;;;;8.84;100.00;98510.38;6054085;23;20017;-68
2023/03/14 05:52:08;;;;;;;4.05;3.85;;;;;;;8.86;100.00;98516.31;6055698;23;20646;-68
2023/03/14 05:54:35;;;;;;;4.32;4.13;;;;;;;8.48;100.00;98451.38;6053069;23;20029;-69
2023/03/14 05:57:01;;;;;;;4.50;4.30;;;;;;;8.91;100.00;98522.00;6036364;23;20046;-68
2023/03/14 05:59:28;;;;;;;4.68;4.38;;;;;;;8.54;100.00;98458.75;6047685;23;20038;-68
2023/03/14 06:01:54;;;;;;;4.15;3.95;;;;;;;8.94;100.00;98520.91;6049942;23;20033;-69
2023/03/14 06:04:20;;;;;;;4.50;4.30;;;;;;;8.92;100.00;98504.50;6050454;23;20045;-69
2023/03/14 06:06:47;;;;;;;3.97;3.80;;;;;;;8.56;100.00;98430.69;6047658;23;20007;-69
2023/03/14 06:09:13;;;;;;;4.20;4.00;;;;;;;8.73;100.00;98456.28;6026192;23;20038;-69
2023/03/14 06:11:40;;;;;;;4.30;4.10;;;;;;;9.04;100.00;98494.84;6052613;23;20011;-69
2023/03/14 06:14:06;;;;;;;4.18;3.97;;;;;;;9.07;100.00;98512.91;6052244;23;20052;-69
2023/03/14 06:16:33;;;;;;;4.10;3.90;;;;;;;8.51;100.00;98417.97;6048202;23;20026;-69
2023/03/14 06:18:59;;;;;;;4.30;4.10;;;;;;;8.67;100.00;98437.66;6052469;23;20030;-69
2023/03/14 06:21:26;;;;;;;4.03;3.83;;;;;;;8.69;100.00;98436.56;6047483;23;20018;-69
2023/03/14 06:23:52;;;;;;;4.00;3.80;;;;;;;8.65;100.00;98436.97;6057451;23;20086;-69
2023/03/14 06:26:19;;;;;;;4.13;3.92;;;;;;;9.14;100.00;98508.81;6029245;23;20026;-69
2023/03/14 06:28:45;;;;;;;4.05;3.85;;;;;;;9.17;100.00;98508.59;6053230;23;20027;-69
2023/03/14 06:31:12;;;;;;;4.00;3.80;;;;;;;9.21;100.00;98515.22;6038467;23;20497;-69
2023/03/14 06:33:38;;;;;;;4.03;3.83;;;;;;;9.27;100.00;98511.28;6034741;23;20018;-69
2023/03/14 06:36:05;;;;;;;4.10;3.90;;;;;;;9.28;100.00;98500.69;6038066;23;20050;-69
2023/03/14 06:38:32;;;;;;;4.00;3.80;;;;;;;8.30;100.00;98342.09;6059647;23;20026;-69
2023/03/14 06:41:05;;;;;;;4.05;3.85;;;;;;;9.07;100.00;98471.88;6039692;23;20033;-69
2023/03/14 06:43:32;;;;;;;4.10;3.90;;;;;;;9.46;100.00;98523.69;6029597;23;20085;-69
2023/03/14 06:45:58;;;;;;;4.00;3.80;;;;;;;9.46;100.00;98518.44;6044071;23;20034;-69
2023/03/14 06:48:25;;;;;;;4.10;3.90;;;;;;;9.38;100.00;98490.28;6059374;23;20023;-69
2023/03/14 06:50:51;;;;;;;4.00;3.80;;;;;;;9.69;100.00;98521.78;6057745;23;20101;-69
2023/03/14 06:53:18;;;;;;;4.40;4.10;;;;;;;9.66;100.00;98529.88;6029685;23;20046;-69
2023/03/14 06:55:45;;;;;;;7.38;4.00;;;;;;;9.59;100.00;98512.06;6049824;23;20576;-69
2023/03/14 06:58:12;;;;;;;4.38;4.07;;;;;;;9.52;100.00;98505.69;6033891;23;20026;-69
2023/03/14 07:00:38;;;;;;;4.10;3.90;;;;;;;9.34;100.00;98479.25;6054268;23;20022;-69
2023/03/14 07:03:05;;;;;;;4.15;3.95;;;;;;;9.67;100.00;98529.78;6060700;23;20330;-69
2023/03/14 07:05:31;;;;;;;4.20;4.00;;;;;;;9.67;100.00;98521.91;6031860;23;20022;-69
2023/03/14 07:07:58;;;;;;;4.18;3.97;;;;;;;9.49;100.00;98499.88;6035557;23;20034;-69
2023/03/14 07:10:24;;;;;;;4.00;3.80;;;;;;;9.82;100.00;98535.50;6034900;23;20045;-69
2023/03/14 07:12:52;;;;;;;4.00;3.80;;;;;;;9.17;100.00;98428.28;6053022;23;20437;-69
2023/03/14 07:15:19;;;;;;;4.30;4.10;;;;;;;9.93;100.00;98538.06;6059801;23;20026;-69
2023/03/14 07:17:47;;;;;;;3.83;3.72;;;;;;;10.01;100.00;98544.47;6032335;23;20010;-69
2023/03/14 07:20:14;;;;;;;5.20;5.00;;;;;;;9.90;100.00;98527.84;6061235;23;20026;-69
2023/03/14 07:22:41;;;;;;;4.00;3.83;;;;;;;10.07;100.00;98543.94;6051745;23;20022;-70
2023/03/14 07:25:09;;;;;;;4.20;4.00;;;;;;;10.15;100.00;98555.44;6054863;23;20683;-69
2023/03/14 07:27:36;;;;;;;4.40;4.20;;;;;;;9.92;100.00;98519.84;6053583;23;20398;-70
2023/03/14 07:30:02;;;;;;;4.10;3.90;;;;;;;10.16;100.00;98538.75;6034801;23;20126;-69
2023/03/14 07:32:29;;;;;;;4.07;3.88;;;;;;;10.31;100.00;98570.72;6049843;23;20097;-69
2023/03/14 07:34:56;;;;;;;4.47;4.28;;;;;;;10.36;100.00;98571.16;6040153;23;20039;-70
2023/03/14 07:37:22;;;;;;;4.07;3.88;;;;;;;10.35;100.00;98573.91;6057658;23;20637;-68
2023/03/14 07:39:49;;;;;;;4.20;4.00;;;;;;;10.33;100.00;98573.22;6036034;23;20063;-69
2023/03/14 07:42:15;;;;;;;4.20;4.00;;;;;;;9.82;100.00;98501.44;6061270;23;20026;-69
2023/03/14 07:44:42;;;;;;;4.20;4.00;;;;;;;10.26;100.00;98569.41;6034644;23;20070;-70
2023/03/14 07:47:08;;;;;;;4.30;4.10;;;;;;;9.93;100.00;98526.75;6059815;23;20527;-70
2023/03/14 07:49:34;;;;;;;4.40;4.20;;;;;;;9.93;100.00;98517.09;6057224;23;20476;-69
2023/03/14 07:52:01;;;;;;;4.40;4.20;;;;;;;10.36;100.00;98581.66;6044935;23;20071;-70
2023/03/14 07:54:27;;;;;;;4.40;4.20;;;;;;;10.30;100.00;98574.31;6030122;23;20051;-69
2023/03/14 07:56:54;;;;;;;4.20;4.00;;;;;;;10.44;100.00;98588.00;6057882;23;20017;-70
2023/03/14 07:59:20;;;;;;;4.50;4.30;;;;;;;10.22;100.00;98545.25;6022996;23;20130;-70
2023/03/14 08:01:47;;;;;;;4.25;4.05;;;;;;;10.29;100.00;98540.31;6055193;23;20030;-69
2023/03/14 08:04:16;;;;;;;4.43;4.22;;;;;;;10.83;100.00;98602.13;6040779;23;20100;-69
2023/03/14 08:06:42;;;;;;;4.30;4.10;;;;;;;10.94;100.00;98603.81;6050122;23;20187;-70
2023/03/14 08:09:09;;;;;;;4.53;4.32;;;;;;;10.98;100.00;98587.66;6060479;23;20022;-70
2023/03/14 08:11:35;;;;;;;4.70;4.50;;;;;;;10.73;100.00;98546.16;6049929;23;20077;-70
2023/03/14 08:14:02;;;;;;;4.20;4.00;;;;;;;10.63;100.00;98525.16;6031330;23;20046;-70
2023/03/14 08:16:28;;;;;;;4.43;4.22;;;;;;;10.61;100.00;98544.63;6055428;23;20389;-70
2023/03/14 08:18:57;;;;;;;4.50;4.30;;;;;;;10.99;100.00;98604.25;6022263;23;20026;-71
2023/03/14 08:21:24;;;;;;;4.40;4.20;;;;;;;11.03;100.00;98612.69;6052285;23;20070;-70
2023/03/14 08:23:50;;;;;;;4.38;4.18;;;;;;;10.91;100.00;98607.53;6057106;23;20034;-70
2023/03/14 08:26:17;;;;;;;4.60;4.40;;;;;;;10.63;100.00;98572.38;6028070;23;20018;-70
2023/03/14 08:28:43;;;;;;;4.72;4.53;;;;;;;10.89;100.00;98616.50;6057261;23;20839;-69
2023/03/14 08:31:09;;;;;;;5.18;4.82;;;;;;;10.76;100.00;98620.19;6056186;23;20013;-69
2023/03/14 08:33:36;;;;;;;4.30;4.10;;;;;;;10.73;100.00;98603.88;6043699;23;20075;-69
2023/03/14 08:36:03;;;;;;;4.50;4.30;;;;;;;10.81;100.00;98608.47;6033165;23;20039;-70
2023/03/14 08:38:30;;;;;;;4.50;4.30;;;;;;;10.81;100.00;98606.66;6055120;23;20022;-70
2023/03/14 08:40:58;;;;;;;4.50;4.30;;;;;;;10.95;100.00;98613.34;6062112;23;20045;-70
2023/03/14 08:43:26;;;;;;;4.35;4.15;;;;;;;11.07;100.00;98622.78;6011996;23;20037;-69
2023/03/14 08:45:52;;;;;;;4.60;4.40;;;;;;;11.10;100.00;98632.97;6048657;23;20560;-69
2023/03/14 08:48:19;;;;;;;4.60;4.40;;;;;;;10.59;100.00;98570.97;6054132;23;20044;-71
2023/03/14 08:50:46;;;;;;;4.63;4.43;;;;;;;10.89;100.00;98635.69;6057772;23;20101;-70
2023/03/14 08:53:12;;;;;;;4.70;4.40;;;;;;;9.59;100.00;98443.16;6052646;23;20023;-69
2023/03/14 08:55:39;;;;;;;4.40;4.20;;;;;;;10.76;100.00;98654.31;6058186;23;20050;-70
2023/03/14 08:58:05;;;;;;;4.43;4.22;;;;;;;10.59;100.00;98639.16;6055243;23;20070;-70
2023/03/14 09:00:32;;;;;;;4.43;4.22;;;;;;;10.07;100.00;98576.22;6029389;23;20042;-70
2023/03/14 09:02:58;;;;;;;4.10;3.90;;;;;;;10.36;100.00;98628.00;6027012;23;20027;-70
2023/03/14 09:05:25;;;;;;;4.57;4.38;;;;;;;10.49;100.00;98669.75;6055329;23;20041;-70
2023/03/14 09:07:51;;;;;;;4.32;4.13;;;;;;;10.43;100.00;98671.09;6016451;23;20446;-70
2023/03/14 09:10:17;;;;;;;4.40;4.20;;;;;;;10.40;100.00;98692.31;6053347;23;20130;-70
2023/03/14 09:12:46;;;;;;;4.20;4.00;;;;;;;10.35;100.00;98684.84;6029481;23;20014;-69
2023/03/14 09:15:13;;;;;;;4.32;4.13;;;;;;;10.36;100.00;98681.28;6053540;23;20036;-70
2023/03/14 09:17:39;;;;;;;4.18;3.97;;;;;;;10.03;100.00;98656.03;6040779;23;20063;-70
2023/03/14 09:20:09;;;;;;;4.20;4.00;;;;;;;9.80;100.00;98684.13;6025632;23;20037;-70
2023/03/14 09:22:36;;;;;;;5.00;4.60;;;;;;;9.89;100.00;98725.31;6053289;23;20018;-70
2023/03/14 09:25:04;;;;;;;4.00;3.80;;;;;;;9.35;100.00;98700.78;6026994;23;20025;-70
2023/03/14 09:27:30;;;;;;;3.97;3.78;;;;;;;9.04;100.00;98727.69;6054733;23;20042;-70
2023/03/14 09:29:56;;;;;;;4.20;4.00;;;;;;;8.54;100.00;98673.13;6028812;23;20038;-70
2023/03/14 09:32:23;;;;;;;4.40;4.20;;;;;;;8.74;100.00;98748.25;6054303;23;20022;-71
2023/03/14 09:34:50;;;;;;;4.05;3.85;;;;;;;7.80;100.00;98615.91;6028425;23;20139;-70
2023/03/14 09:37:16;;;;;;;4.30;4.10;;;;;;;8.26;100.00;98727.44;6052744;23;20100;-70
2023/03/14 09:39:43;;;;;;;4.07;3.88;;;;;;;8.14;100.00;98739.63;6031921;23;20030;-70
2023/03/14 09:42:16;;;;;;;4.10;3.90;;;;;;;8.16;100.00;98776.91;6030036;23;20018;-70
2023/03/14 09:44:52;;;;;;;4.00;3.80;;;;;;;8.02;100.00;98797.13;6058156;23;20467;-70
2023/03/14 09:47:19;;;;;;;4.07;3.88;;;;;;;8.10;100.00;98805.28;6049923;23;20030;-71
2023/03/14 09:49:46;;;;;;;4.00;3.80;;;;;;;8.11;100.00;98838.28;6024411;23;20658;-70
2023/03/14 09:52:23;;;;;;;4.10;3.90;;;;;;;8.26;100.00;98842.41;6047380;23;20003;-70
2023/03/14 09:54:58;;;;;;;4.15;3.95;;;;;;;8.27;100.00;98845.84;6019298;23;20092;-70
2023/03/14 09:57:26;;;;;;;3.83;3.72;;;;;;;8.06;100.00;98836.00;6055400;23;20094;-70
2023/03/14 09:59:57;;;;;;;3.95;3.75;;;;;;;8.15;100.00;98860.63;6043750;23;20054;-70
2023/03/14 10:02:28;;;;;;;4.10;3.90;;;;;;;7.95;100.00;98885.56;6054633;23;20026;-70
2023/03/14 10:04:54;;;;;;;4.40;4.20;;;;;;;7.72;100.00;98845.41;6038065;23;20023;-69
2023/03/14 10:07:30;;;;;;;4.05;3.85;;;;;;;8.09;100.00;98913.31;6055519;23;20026;-68
2023/03/14 10:09:57;;;;;;;4.20;4.00;;;;;;;7.41;100.00;98807.56;6058789;23;20068;-68
2023/03/14 10:12:38;;;;;;;4.40;4.20;;;;;;;7.95;100.00;98916.91;6024109;23;20508;-71
2023/03/14 10:15:11;;;;;;;3.70;3.60;;;;;;;7.91;100.00;98926.72;6053505;23;20034;-68
2023/03/14 10:17:49;;;;;;;3.97;3.78;;;;;;;7.83;100.00;98928.22;6060242;23;20022;-68
2023/03/14 10:20:37;;;;;;;3.90;3.70;;;;;;;7.92;100.00;98945.88;6035827;23;20045;-68
2023/03/14 10:23:12;;;;;;;3.95;3.72;;;;;;;7.88;100.00;98962.69;6054203;23;20030;-68
2023/03/14 10:25:42;;;;;;;3.70;3.60;;;;;;;8.01;100.00;98957.44;6050749;23;20086;-68
2023/03/14 10:28:40;;;;;;;4.03;3.83;;;;;;;7.95;100.00;98990.03;6055451;23;20469;-68
2023/03/14 10:31:06;;;;;;;4.13;3.92;;;;;;;7.98;100.00;98987.22;6027368;23;20037;-68
2023/03/14 10:33:36;;;;;;;4.55;4.28;;;;;;;7.65;100.00;98996.41;6061176;23;20029;-68
2023/03/14 10:36:18;;;;;;;4.03;3.83;;;;;;;7.24;100.00;98957.44;6027158;23;20078;-68
2023/03/14 10:38:44;;;;;;;4.00;3.80;;;;;;;7.48;100.00;99021.03;6062371;23;20026;-68
2023/03/14 10:41:25;;;;;;;4.20;4.00;;;;;;;7.21;100.00;99015.84;6030231;23;20042;-68
2023/03/14 10:43:58;;;;;;;3.90;3.70;;;;;;;6.94;100.00;98982.81;6055443;23;20076;-68
2023/03/14 10:46:29;;;;;;;3.80;3.60;;;;;;;7.52;100.00;99061.66;6054314;23;20042;-68
2023/03/14 10:48:56;;;;;;;4.00;3.80;;;;;;;7.74;100.00;99083.75;6039706;23;20841;-68
2023/03/14 10:51:26;;;;;;;4.13;3.92;;;;;;;7.92;100.00;99087.75;6053469;23;20026;-68
2023/03/14 10:54:11;;;;;;;6.35;4.03;;;;;;;8.19;100.00;99086.81;6058389;23;20038;-68
2023/03/14 10:56:38;;;;;;;4.20;4.00;;;;;;;8.18;100.00;99085.16;6028184;23;20449;-68
2023/03/14 10:59:13;;;;;;;4.00;3.80;;;;;;;8.08;100.00;99040.53;6057028;23;20088;-68
2023/03/14 11:02:07;;;;;;;4.25;4.05;;;;;;;7.92;100.00;99035.50;6022357;23;20533;-68
2023/03/14 11:04:55;;;;;;;13.48;4.00;;;;;;;8.30;100.00;99083.44;6046885;23;20050;-69
2023/03/14 11:07:32;;;;;;;4.50;4.10;;;;;;;8.33;100.00;99101.53;6037382;23;21680;-68
2023/03/14 11:10:19;;;;;;;4.03;3.83;;;;;;;8.25;100.00;99104.69;6030719;23;20030;-68
2023/03/14 11:13:08;;;;;;;7.07;3.67;;;;;;;8.31;100.00;99132.19;6050438;23;20030;-68
2023/03/14 11:15:43;;;;;;;3.75;3.65;;;;;;;7.18;100.00;99066.47;6053888;23;20525;-68
2023/03/14 11:18:21;;;;;;;3.55;3.45;;;;;;;7.02;100.00;99158.84;6033662;23;20712;-68
2023/03/14 11:20:55;;;;;;;3.90;3.70;;;;;;;6.72;100.00;99176.28;6047213;23;20037;-68
2023/03/14 11:23:52;;;;;;;4.10;3.80;;;;;;;6.49;100.00;99166.38;6031031;23;20038;-68
2023/03/14 11:26:32;;;;;;;3.70;3.60;;;;;;;6.42;100.00;99184.16;6035862;23;20244;-68
2023/03/14 11:29:14;;;;;;;3.47;3.38;;;;;;;6.23;100.00;99165.34;6056093;23;20029;-68
2023/03/14 11:31:44;;;;;;;3.67;3.58;;;;;;;6.07;100.00;99148.00;6054948;23;20080;-68
2023/03/14 11:34:22;;;;;;;3.65;3.55;;;;;;;6.53;100.00;99225.22;6054448;23;20029;-68
2023/03/14 11:36:52;;;;;;;3.92;3.72;;;;;;;6.65;100.00;99234.91;6028304;23;20099;-68
2023/03/14 11:39:20;;;;;;;4.18;3.97;;;;;;;6.66;100.00;99241.00;6035257;23;20057;-68
2023/03/14 11:41:51;;;;;;;3.60;3.50;;;;;;;5.88;100.00;99122.16;6058952;23;20027;-68
2023/03/14 11:44:20;;;;;;;3.50;3.40;;;;;;;6.61;100.00;99256.03;6067249;23;20034;-68
2023/03/14 11:47:11;;;;;;;3.50;3.40;;;;;;;6.26;100.00;99205.06;6061321;23;20010;-68